sensor_id;sensor_type;location;lat;lon;timestamp;pressure;altitude;pressure_sealevel;temperature;humidity
21395;BME280;10858;42.714;23.180;2023-04-29T00:00:22;94432.84;;;4.26;77.47
21395;BME280;10858;42.714;23.180;2023-04-29T00:02:48;94431.91;;;4.27;77.94
21395;BME280;10858;42.714;23.180;2023-04-29T00:05:15;94426.66;;;4.27;77.72
21395;BME280;10858;42.714;23.180;2023-04-29T00:07:41;94426.47;;;4.30;77.00
21395;BME280;10858;42.714;23.180;2023-04-29T00:10:08;94437.16;;;4.27;76.86
21395;BME280;10858;42.714;23.180;2023-04-29T00:12:34;94424.63;;;4.18;77.49
21395;BME280;10858;42.714;23.180;2023-04-29T00:15:01;94433.25;;;4.06;77.84
21395;BME280;10858;42.714;23.180;2023-04-29T00:17:27;94427.78;;;4.09;77.65
21395;BME280;10858;42.714;23.180;2023-04-29T00:19:54;94438.50;;;3.92;78.07
21395;BME280;10858;42.714;23.180;2023-04-29T00:22:20;94439.00;;;3.84;78.25
21395;BME280;10858;42.714;23.180;2023-04-29T00:24:47;94443.00;;;3.90;78.09
21395;BME280;10858;42.714;23.180;2023-04-29T00:27:13;94438.91;;;3.72;78.68
21395;BME280;10858;42.714;23.180;2023-04-29T00:29:41;94442.09;;;3.77;79.11
21395;BME280;10858;42.714;23.180;2023-04-29T00:32:08;94442.75;;;3.80;78.84
21395;BME280;10858;42.714;23.180;2023-04-29T00:34:34;94449.66;;;3.81;78.27
21395;BME280;10858;42.714;23.180;2023-04-29T00:37:00;94452.56;;;4.05;77.60
21395;BME280;10858;42.714;23.180;2023-04-29T00:39:27;94442.63;;;4.10;77.59
21395;BME280;10858;42.714;23.180;2023-04-29T00:41:53;94442.63;;;3.96;77.97
21395;BME280;10858;42.714;23.180;2023-04-29T00:44:19;94435.31;;;3.87;78.64
21395;BME280;10858;42.714;23.180;2023-04-29T00:46:46;94432.13;;;3.96;78.33
21395;BME280;10858;42.714;23.180;2023-04-29T00:49:13;94432.53;;;3.90;78.52
21395;BME280;10858;42.714;23.180;2023-04-29T00:51:40;94436.81;;;4.05;78.15
21395;BME280;10858;42.714;23.180;2023-04-29T00:54:07;94432.69;;;4.01;78.10
21395;BME280;10858;42.714;23.180;2023-04-29T00:56:35;94430.28;;;3.70;79.28
21395;BME280;10858;42.714;23.180;2023-04-29T00:59:02;94423.88;;;3.45;79.44
21395;BME280;10858;42.714;23.180;2023-04-29T01:01:29;94421.47;;;3.42;79.72
21395;BME280;10858;42.714;23.180;2023-04-29T01:03:56;94419.78;;;3.41;80.09
21395;BME280;10858;42.714;23.180;2023-04-29T01:14:32;94407.00;;;3.21;80.30
21395;BME280;10858;42.714;23.180;2023-04-29T01:17:08;94407.22;;;3.18;80.37
21395;BME280;10858;42.714;23.180;2023-04-29T01:22:02;94406.53;;;3.15;80.15
21395;BME280;10858;42.714;23.180;2023-04-29T01:24:28;94400.81;;;3.08;80.00
21395;BME280;10858;42.714;23.180;2023-04-29T01:27:04;94401.38;;;3.13;80.73
21395;BME280;10858;42.714;23.180;2023-04-29T01:32:42;94405.13;;;3.09;80.06
21395;BME280;10858;42.714;23.180;2023-04-29T01:41:14;94391.78;;;2.84;81.74
21395;BME280;10858;42.714;23.180;2023-04-29T01:43:42;94389.59;;;2.77;81.84
21395;BME280;10858;42.714;23.180;2023-04-29T01:46:15;94393.94;;;2.92;81.09
21395;BME280;10858;42.714;23.180;2023-04-29T01:48:43;94391.53;;;2.73;81.26
21395;BME280;10858;42.714;23.180;2023-04-29T01:51:09;94397.28;;;2.80;81.84
21395;BME280;10858;42.714;23.180;2023-04-29T01:53:36;94395.88;;;2.74;81.96
21395;BME280;10858;42.714;23.180;2023-04-29T01:56:03;94402.06;;;2.87;82.47
21395;BME280;10858;42.714;23.180;2023-04-29T01:58:29;94396.25;;;2.82;82.18
21395;BME280;10858;42.714;23.180;2023-04-29T02:00:55;94397.63;;;3.03;81.58
21395;BME280;10858;42.714;23.180;2023-04-29T02:03:22;94402.66;;;2.92;81.53
21395;BME280;10858;42.714;23.180;2023-04-29T02:05:48;94394.44;;;2.98;82.19
21395;BME280;10858;42.714;23.180;2023-04-29T02:08:16;94399.31;;;3.04;81.27
21395;BME280;10858;42.714;23.180;2023-04-29T02:10:54;94409.03;;;3.02;80.86
21395;BME280;10858;42.714;23.180;2023-04-29T02:13:20;94410.47;;;2.78;81.47
21395;BME280;10858;42.714;23.180;2023-04-29T02:15:47;94409.16;;;2.85;81.81
21395;BME280;10858;42.714;23.180;2023-04-29T02:18:13;94403.41;;;2.94;81.75
21395;BME280;10858;42.714;23.180;2023-04-29T02:20:40;94400.97;;;2.91;81.59
21395;BME280;10858;42.714;23.180;2023-04-29T02:23:06;94400.03;;;2.92;81.18
21395;BME280;10858;42.714;23.180;2023-04-29T02:25:32;94400.19;;;2.89;80.37
21395;BME280;10858;42.714;23.180;2023-04-29T02:27:58;94394.06;;;2.75;81.18
21395;BME280;10858;42.714;23.180;2023-04-29T02:30:24;94398.25;;;2.63;82.04
21395;BME280;10858;42.714;23.180;2023-04-29T02:32:51;94396.22;;;2.68;81.61
21395;BME280;10858;42.714;23.180;2023-04-29T02:35:18;94399.59;;;2.70;81.49
21395;BME280;10858;42.714;23.180;2023-04-29T02:37:45;94389.22;;;2.83;80.75
21395;BME280;10858;42.714;23.180;2023-04-29T02:40:11;94390.94;;;2.84;80.48
21395;BME280;10858;42.714;23.180;2023-04-29T02:42:38;94389.19;;;2.69;81.28
21395;BME280;10858;42.714;23.180;2023-04-29T02:45:04;94392.44;;;2.58;80.79
21395;BME280;10858;42.714;23.180;2023-04-29T02:47:31;94392.53;;;2.56;80.85
21395;BME280;10858;42.714;23.180;2023-04-29T02:49:57;94398.88;;;2.37;81.35
21395;BME280;10858;42.714;23.180;2023-04-29T02:52:23;94404.72;;;2.42;81.95
21395;BME280;10858;42.714;23.180;2023-04-29T02:54:49;94416.19;;;2.39;82.00
21395;BME280;10858;42.714;23.180;2023-04-29T02:57:16;94407.03;;;2.32;82.43
21395;BME280;10858;42.714;23.180;2023-04-29T02:59:43;94406.06;;;2.33;81.59
21395;BME280;10858;42.714;23.180;2023-04-29T03:02:09;94408.13;;;2.28;81.73
21395;BME280;10858;42.714;23.180;2023-04-29T03:04:35;94407.59;;;2.37;81.83
21395;BME280;10858;42.714;23.180;2023-04-29T03:07:02;94423.47;;;2.19;81.73
21395;BME280;10858;42.714;23.180;2023-04-29T03:09:29;94411.56;;;2.29;82.63
21395;BME280;10858;42.714;23.180;2023-04-29T03:11:55;94425.16;;;2.35;82.04
21395;BME280;10858;42.714;23.180;2023-04-29T03:14:21;94420.69;;;2.37;81.94
21395;BME280;10858;42.714;23.180;2023-04-29T03:16:48;94415.19;;;2.42;81.44
21395;BME280;10858;42.714;23.180;2023-04-29T03:19:14;94428.22;;;2.28;82.08
21395;BME280;10858;42.714;23.180;2023-04-29T03:21:41;94434.78;;;2.19;82.15
21395;BME280;10858;42.714;23.180;2023-04-29T03:24:08;94443.41;;;2.21;82.59
21395;BME280;10858;42.714;23.180;2023-04-29T03:26:34;94444.41;;;2.19;82.26
21395;BME280;10858;42.714;23.180;2023-04-29T03:29:00;94456.22;;;2.26;81.97
21395;BME280;10858;42.714;23.180;2023-04-29T03:31:26;94456.38;;;2.23;82.17
21395;BME280;10858;42.714;23.180;2023-04-29T03:33:53;94452.34;;;2.33;83.05
21395;BME280;10858;42.714;23.180;2023-04-29T03:36:19;94453.44;;;2.44;83.51
21395;BME280;10858;42.714;23.180;2023-04-29T03:38:46;94433.69;;;2.54;83.66
21395;BME280;10858;42.714;23.180;2023-04-29T03:41:12;94430.84;;;2.73;83.20
21395;BME280;10858;42.714;23.180;2023-04-29T03:43:38;94430.53;;;2.93;83.10
21395;BME280;10858;42.714;23.180;2023-04-29T03:46:04;94431.75;;;3.31;81.91
21395;BME280;10858;42.714;23.180;2023-04-29T03:48:31;94429.50;;;3.54;81.87
21395;BME280;10858;42.714;23.180;2023-04-29T03:50:57;94432.50;;;3.47;82.35
21395;BME280;10858;42.714;23.180;2023-04-29T03:53:24;94437.97;;;3.59;82.55
21395;BME280;10858;42.714;23.180;2023-04-29T03:55:51;94447.03;;;3.67;81.89
21395;BME280;10858;42.714;23.180;2023-04-29T03:58:17;94451.53;;;3.79;81.47
21395;BME280;10858;42.714;23.180;2023-04-29T04:00:43;94452.00;;;3.86;81.03
21395;BME280;10858;42.714;23.180;2023-04-29T04:03:09;94452.94;;;3.99;81.00
21395;BME280;10858;42.714;23.180;2023-04-29T04:05:36;94453.03;;;4.11;81.22
21395;BME280;10858;42.714;23.180;2023-04-29T04:08:02;94450.84;;;4.32;81.39
21395;BME280;10858;42.714;23.180;2023-04-29T04:10:28;94448.25;;;4.59;81.08
21395;BME280;10858;42.714;23.180;2023-04-29T04:12:55;94457.25;;;4.81;81.80
21395;BME280;10858;42.714;23.180;2023-04-29T04:15:21;94460.06;;;4.92;80.61
21395;BME280;10858;42.714;23.180;2023-04-29T04:17:47;94450.97;;;5.10;79.95
21395;BME280;10858;42.714;23.180;2023-04-29T04:20:14;94450.66;;;5.15;79.52
21395;BME280;10858;42.714;23.180;2023-04-29T04:22:41;94456.22;;;5.23;78.92
21395;BME280;10858;42.714;23.180;2023-04-29T04:25:07;94447.78;;;5.45;77.74
21395;BME280;10858;42.714;23.180;2023-04-29T04:27:34;94440.53;;;5.61;77.72
21395;BME280;10858;42.714;23.180;2023-04-29T04:30:00;94441.78;;;5.80;77.60
21395;BME280;10858;42.714;23.180;2023-04-29T04:32:26;94443.25;;;6.10;77.22
21395;BME280;10858;42.714;23.180;2023-04-29T04:34:52;94442.19;;;6.25;76.56
21395;BME280;10858;42.714;23.180;2023-04-29T04:37:19;94439.94;;;6.67;76.72
21395;BME280;10858;42.714;23.180;2023-04-29T04:39:45;94448.69;;;6.80;75.08
21395;BME280;10858;42.714;23.180;2023-04-29T04:42:12;94454.88;;;6.56;74.75
21395;BME280;10858;42.714;23.180;2023-04-29T04:44:38;94461.47;;;6.61;73.31
21395;BME280;10858;42.714;23.180;2023-04-29T04:47:04;94443.91;;;6.85;73.56
21395;BME280;10858;42.714;23.180;2023-04-29T04:49:31;94444.91;;;7.19;71.77
21395;BME280;10858;42.714;23.180;2023-04-29T04:51:57;94435.31;;;7.53;71.56
21395;BME280;10858;42.714;23.180;2023-04-29T04:54:23;94440.34;;;8.13;71.13
21395;BME280;10858;42.714;23.180;2023-04-29T04:56:49;94431.34;;;8.48;69.17
21395;BME280;10858;42.714;23.180;2023-04-29T04:59:17;94441.28;;;8.12;68.06
21395;BME280;10858;42.714;23.180;2023-04-29T05:01:43;94442.66;;;8.28;67.77
21395;BME280;10858;42.714;23.180;2023-04-29T05:04:09;94434.22;;;8.56;66.67
21395;BME280;10858;42.714;23.180;2023-04-29T05:06:35;94430.19;;;9.27;65.90
21395;BME280;10858;42.714;23.180;2023-04-29T05:09:02;94433.09;;;9.24;64.73
21395;BME280;10858;42.714;23.180;2023-04-29T05:11:28;94438.34;;;8.92;65.10
21395;BME280;10858;42.714;23.180;2023-04-29T05:13:55;94429.94;;;8.98;63.25
21395;BME280;10858;42.714;23.180;2023-04-29T05:16:21;94436.81;;;8.90;63.25
21395;BME280;10858;42.714;23.180;2023-04-29T05:18:47;94420.69;;;9.24;63.18
21395;BME280;10858;42.714;23.180;2023-04-29T05:21:14;94422.59;;;9.54;61.78
21395;BME280;10858;42.714;23.180;2023-04-29T05:23:40;94417.91;;;9.78;60.39
21395;BME280;10858;42.714;23.180;2023-04-29T05:26:06;94418.94;;;9.87;59.79
21395;BME280;10858;42.714;23.180;2023-04-29T05:28:33;94415.44;;;10.07;59.15
21395;BME280;10858;42.714;23.180;2023-04-29T05:30:59;94423.44;;;10.47;58.07
21395;BME280;10858;42.714;23.180;2023-04-29T05:33:25;94417.00;;;10.70;57.67
21395;BME280;10858;42.714;23.180;2023-04-29T05:35:52;94416.91;;;10.51;56.94
21395;BME280;10858;42.714;23.180;2023-04-29T05:38:18;94423.94;;;11.30;56.09
21395;BME280;10858;42.714;23.180;2023-04-29T05:40:44;94428.31;;;11.69;52.08
21395;BME280;10858;42.714;23.180;2023-04-29T05:43:11;94437.94;;;12.08;51.49
21395;BME280;10858;42.714;23.180;2023-04-29T05:45:37;94425.31;;;12.20;52.29
21395;BME280;10858;42.714;23.180;2023-04-29T05:48:04;94435.38;;;12.26;49.82
21395;BME280;10858;42.714;23.180;2023-04-29T05:50:30;94437.25;;;12.43;50.87
21395;BME280;10858;42.714;23.180;2023-04-29T05:52:56;94432.00;;;12.97;49.93
21395;BME280;10858;42.714;23.180;2023-04-29T05:55:22;94430.13;;;13.34;48.23
21395;BME280;10858;42.714;23.180;2023-04-29T05:57:49;94430.19;;;14.13;48.34
21395;BME280;10858;42.714;23.180;2023-04-29T06:00:15;94430.59;;;15.03;47.52
21395;BME280;10858;42.714;23.180;2023-04-29T06:02:41;94429.97;;;15.75;45.06
21395;BME280;10858;42.714;23.180;2023-04-29T06:05:08;94431.34;;;16.27;43.24
21395;BME280;10858;42.714;23.180;2023-04-29T06:07:35;94413.09;;;16.55;43.12
21395;BME280;10858;42.714;23.180;2023-04-29T06:10:01;94416.09;;;16.28;40.78
21395;BME280;10858;42.714;23.180;2023-04-29T06:12:27;94422.28;;;15.96;42.00
21395;BME280;10858;42.714;23.180;2023-04-29T06:14:54;94418.25;;;16.64;41.39
21395;BME280;10858;42.714;23.180;2023-04-29T06:17:20;94413.16;;;18.16;38.18
21395;BME280;10858;42.714;23.180;2023-04-29T06:19:46;94414.03;;;18.31;36.17
21395;BME280;10858;42.714;23.180;2023-04-29T06:22:12;94418.53;;;17.94;38.49
21395;BME280;10858;42.714;23.180;2023-04-29T06:24:39;94422.50;;;18.20;35.87
21395;BME280;10858;42.714;23.180;2023-04-29T06:27:05;94415.06;;;17.85;37.52
21395;BME280;10858;42.714;23.180;2023-04-29T06:29:31;94415.44;;;18.42;35.39
21395;BME280;10858;42.714;23.180;2023-04-29T06:31:57;94412.03;;;19.94;34.42
21395;BME280;10858;42.714;23.180;2023-04-29T06:34:24;94410.47;;;19.34;34.20
21395;BME280;10858;42.714;23.180;2023-04-29T06:36:50;94412.25;;;16.06;40.38
21395;BME280;10858;42.714;23.180;2023-04-29T06:39:16;94407.28;;;14.54;43.81
21395;BME280;10858;42.714;23.180;2023-04-29T06:41:43;94409.13;;;14.53;44.37
21395;BME280;10858;42.714;23.180;2023-04-29T06:44:09;94413.56;;;16.42;43.49
21395;BME280;10858;42.714;23.180;2023-04-29T06:46:35;94407.97;;;19.04;35.82
21395;BME280;10858;42.714;23.180;2023-04-29T06:49:01;94413.50;;;19.31;34.44
21395;BME280;10858;42.714;23.180;2023-04-29T06:51:28;94410.44;;;20.20;33.94
21395;BME280;10858;42.714;23.180;2023-04-29T06:53:54;94417.63;;;21.11;31.39
21395;BME280;10858;42.714;23.180;2023-04-29T06:56:20;94415.00;;;22.19;30.70
21395;BME280;10858;42.714;23.180;2023-04-29T06:58:46;94416.09;;;21.70;31.43
21395;BME280;10858;42.714;23.180;2023-04-29T07:01:13;94420.13;;;22.00;30.05
21395;BME280;10858;42.714;23.180;2023-04-29T07:03:39;94416.56;;;22.60;29.55
21395;BME280;10858;42.714;23.180;2023-04-29T07:06:05;94411.91;;;23.33;30.50
21395;BME280;10858;42.714;23.180;2023-04-29T07:08:31;94408.63;;;23.88;27.72
21395;BME280;10858;42.714;23.180;2023-04-29T07:10:58;94404.19;;;24.07;26.15
21395;BME280;10858;42.714;23.180;2023-04-29T07:13:25;94402.34;;;24.63;28.55
21395;BME280;10858;42.714;23.180;2023-04-29T07:15:51;94397.63;;;24.52;25.49
21395;BME280;10858;42.714;23.180;2023-04-29T07:18:17;94394.34;;;23.61;28.20
21395;BME280;10858;42.714;23.180;2023-04-29T07:20:44;94385.94;;;23.83;26.77
21395;BME280;10858;42.714;23.180;2023-04-29T07:23:11;94393.59;;;22.37;28.33
21395;BME280;10858;42.714;23.180;2023-04-29T07:25:37;94385.72;;;21.21;31.77
21395;BME280;10858;42.714;23.180;2023-04-29T07:28:03;94391.59;;;21.31;30.16
21395;BME280;10858;42.714;23.180;2023-04-29T07:30:30;94388.88;;;21.72;29.19
21395;BME280;10858;42.714;23.180;2023-04-29T07:32:56;94390.72;;;20.90;31.86
21395;BME280;10858;42.714;23.180;2023-04-29T07:35:22;94377.34;;;21.44;29.99
21395;BME280;10858;42.714;23.180;2023-04-29T07:37:49;94383.41;;;22.39;30.26
21395;BME280;10858;42.714;23.180;2023-04-29T07:40:15;94384.69;;;23.08;27.78
21395;BME280;10858;42.714;23.180;2023-04-29T07:42:41;94387.78;;;22.27;28.13
21395;BME280;10858;42.714;23.180;2023-04-29T07:45:08;94386.44;;;21.43;29.55
21395;BME280;10858;42.714;23.180;2023-04-29T07:47:34;94384.50;;;21.24;30.86
21395;BME280;10858;42.714;23.180;2023-04-29T07:50:01;94387.53;;;21.48;28.86
21395;BME280;10858;42.714;23.180;2023-04-29T07:52:27;94382.44;;;19.79;30.96
21395;BME280;10858;42.714;23.180;2023-04-29T07:54:53;94387.03;;;20.00;32.23
21395;BME280;10858;42.714;23.180;2023-04-29T07:57:22;94379.75;;;19.29;33.31
21395;BME280;10858;42.714;23.180;2023-04-29T07:59:52;94371.63;;;19.58;31.26
21395;BME280;10858;42.714;23.180;2023-04-29T08:02:19;94377.19;;;18.92;34.43
21395;BME280;10858;42.714;23.180;2023-04-29T08:04:45;94376.25;;;18.55;33.61
21395;BME280;10858;42.714;23.180;2023-04-29T08:07:11;94373.81;;;19.19;32.23
21395;BME280;10858;42.714;23.180;2023-04-29T08:09:38;94381.91;;;19.90;33.96
21395;BME280;10858;42.714;23.180;2023-04-29T08:12:04;94372.88;;;19.56;33.32
21395;BME280;10858;42.714;23.180;2023-04-29T08:14:30;94368.38;;;18.68;34.67
21395;BME280;10858;42.714;23.180;2023-04-29T08:16:56;94367.50;;;19.41;33.20
21395;BME280;10858;42.714;23.180;2023-04-29T08:19:23;94368.34;;;19.77;33.43
21395;BME280;10858;42.714;23.180;2023-04-29T08:21:49;94364.47;;;19.86;32.94
21395;BME280;10858;42.714;23.180;2023-04-29T08:24:16;94365.97;;;19.68;33.44
21395;BME280;10858;42.714;23.180;2023-04-29T08:26:43;94360.13;;;18.99;33.71
21395;BME280;10858;42.714;23.180;2023-04-29T08:29:09;94359.69;;;18.29;34.32
21395;BME280;10858;42.714;23.180;2023-04-29T08:31:35;94363.47;;;18.57;34.95
21395;BME280;10858;42.714;23.180;2023-04-29T08:34:01;94358.78;;;19.24;35.15
21395;BME280;10858;42.714;23.180;2023-04-29T08:36:27;94353.28;;;18.67;34.74
21395;BME280;10858;42.714;23.180;2023-04-29T08:38:55;94358.53;;;18.61;36.34
21395;BME280;10858;42.714;23.180;2023-04-29T08:41:21;94356.13;;;18.95;35.99
21395;BME280;10858;42.714;23.180;2023-04-29T08:43:48;94358.34;;;19.35;34.87
21395;BME280;10858;42.714;23.180;2023-04-29T08:46:14;94360.63;;;20.16;34.36
21395;BME280;10858;42.714;23.180;2023-04-29T08:48:41;94355.50;;;21.32;31.26
21395;BME280;10858;42.714;23.180;2023-04-29T08:51:11;94358.00;;;20.72;32.92
21395;BME280;10858;42.714;23.180;2023-04-29T08:53:38;94359.97;;;20.57;32.14
21395;BME280;10858;42.714;23.180;2023-04-29T08:56:12;94353.44;;;22.08;30.64
21395;BME280;10858;42.714;23.180;2023-04-29T08:58:40;94344.66;;;23.36;28.50
21395;BME280;10858;42.714;23.180;2023-04-29T09:01:08;94352.59;;;23.76;27.53
21395;BME280;10858;42.714;23.180;2023-04-29T09:03:53;94344.69;;;23.17;27.38
21395;BME280;10858;42.714;23.180;2023-04-29T09:06:22;94344.13;;;22.89;29.74
21395;BME280;10858;42.714;23.180;2023-04-29T09:08:48;94355.25;;;23.44;27.20
21395;BME280;10858;42.714;23.180;2023-04-29T09:11:14;94349.88;;;24.20;27.07
21395;BME280;10858;42.714;23.180;2023-04-29T09:13:41;94344.47;;;24.69;28.32
21395;BME280;10858;42.714;23.180;2023-04-29T09:16:13;94342.88;;;24.62;26.69
21395;BME280;10858;42.714;23.180;2023-04-29T09:18:48;94345.94;;;24.72;30.35
21395;BME280;10858;42.714;23.180;2023-04-29T09:21:20;94331.47;;;24.53;28.90
21395;BME280;10858;42.714;23.180;2023-04-29T09:23:49;94334.53;;;22.99;30.78
21395;BME280;10858;42.714;23.180;2023-04-29T09:26:16;94333.19;;;23.28;28.76
21395;BME280;10858;42.714;23.180;2023-04-29T09:28:42;94327.22;;;23.70;28.44
21395;BME280;10858;42.714;23.180;2023-04-29T09:31:13;94328.28;;;24.63;28.47
21395;BME280;10858;42.714;23.180;2023-04-29T09:34:09;94327.50;;;22.72;29.42
21395;BME280;10858;42.714;23.180;2023-04-29T09:36:47;94319.97;;;21.95;31.44
21395;BME280;10858;42.714;23.180;2023-04-29T09:39:18;94322.72;;;22.22;30.31
21395;BME280;10858;42.714;23.180;2023-04-29T09:44:22;94316.63;;;21.87;30.58
21395;BME280;10858;42.714;23.180;2023-04-29T09:47:03;94309.63;;;22.32;29.54
21395;BME280;10858;42.714;23.180;2023-04-29T09:49:38;94302.94;;;22.41;30.83
21395;BME280;10858;42.714;23.180;2023-04-29T09:52:09;94307.41;;;23.32;28.99
21395;BME280;10858;42.714;23.180;2023-04-29T09:54:36;94300.25;;;24.19;26.86
21395;BME280;10858;42.714;23.180;2023-04-29T09:57:07;94298.31;;;24.51;27.31
21395;BME280;10858;42.714;23.180;2023-04-29T09:59:35;94295.38;;;23.97;25.99
21395;BME280;10858;42.714;23.180;2023-04-29T10:02:05;94282.25;;;23.12;30.33
21395;BME280;10858;42.714;23.180;2023-04-29T10:04:34;94278.13;;;22.96;29.63
21395;BME280;10858;42.714;23.180;2023-04-29T10:07:04;94273.00;;;22.62;29.40
21395;BME280;10858;42.714;23.180;2023-04-29T10:09:31;94280.91;;;22.31;30.78
21395;BME280;10858;42.714;23.180;2023-04-29T10:12:00;94275.03;;;21.62;30.56
21395;BME280;10858;42.714;23.180;2023-04-29T10:14:28;94272.81;;;21.18;30.19
21395;BME280;10858;42.714;23.180;2023-04-29T10:17:03;94273.28;;;21.35;28.99
21395;BME280;10858;42.714;23.180;2023-04-29T10:22:33;94264.25;;;22.73;29.96
21395;BME280;10858;42.714;23.180;2023-04-29T10:25:01;94264.91;;;22.36;29.14
21395;BME280;10858;42.714;23.180;2023-04-29T10:27:29;94268.44;;;21.97;29.13
21395;BME280;10858;42.714;23.180;2023-04-29T10:29:58;94267.09;;;21.54;28.67
21395;BME280;10858;42.714;23.180;2023-04-29T10:32:26;94266.81;;;20.82;28.80
21395;BME280;10858;42.714;23.180;2023-04-29T10:34:54;94271.25;;;21.50;29.40
21395;BME280;10858;42.714;23.180;2023-04-29T10:37:22;94267.22;;;23.67;28.19
21395;BME280;10858;42.714;23.180;2023-04-29T10:40:15;94257.41;;;25.79;24.31
21395;BME280;10858;42.714;23.180;2023-04-29T10:42:47;94251.47;;;26.53;24.28
21395;BME280;10858;42.714;23.180;2023-04-29T10:45:31;94252.81;;;26.85;23.58
21395;BME280;10858;42.714;23.180;2023-04-29T10:53:05;94249.53;;;26.19;23.93
21395;BME280;10858;42.714;23.180;2023-04-29T10:55:34;94248.06;;;25.09;23.18
21395;BME280;10858;42.714;23.180;2023-04-29T10:58:03;94241.72;;;24.79;24.86
21395;BME280;10858;42.714;23.180;2023-04-29T11:00:33;94240.69;;;24.56;24.23
21395;BME280;10858;42.714;23.180;2023-04-29T11:03:01;94247.78;;;24.32;23.05
21395;BME280;10858;42.714;23.180;2023-04-29T11:05:30;94245.38;;;23.93;24.04
21395;BME280;10858;42.714;23.180;2023-04-29T11:10:43;94240.13;;;22.52;26.57
21395;BME280;10858;42.714;23.180;2023-04-29T11:13:27;94232.66;;;23.18;25.36
21395;BME280;10858;42.714;23.180;2023-04-29T11:16:14;94234.50;;;23.24;26.94
21395;BME280;10858;42.714;23.180;2023-04-29T11:19:02;94230.81;;;23.12;23.95
21395;BME280;10858;42.714;23.180;2023-04-29T11:21:29;94237.16;;;22.86;24.53
21395;BME280;10858;42.714;23.180;2023-04-29T11:23:57;94232.72;;;21.88;22.91
21395;BME280;10858;42.714;23.180;2023-04-29T11:26:24;94237.56;;;21.33;24.24
21395;BME280;10858;42.714;23.180;2023-04-29T11:28:51;94230.38;;;20.99;24.15
21395;BME280;10858;42.714;23.180;2023-04-29T11:31:17;94231.59;;;20.96;26.58
21395;BME280;10858;42.714;23.180;2023-04-29T11:33:45;94233.06;;;20.99;25.58
21395;BME280;10858;42.714;23.180;2023-04-29T11:36:11;94234.47;;;20.82;25.62
21395;BME280;10858;42.714;23.180;2023-04-29T11:38:39;94233.69;;;21.01;25.49
21395;BME280;10858;42.714;23.180;2023-04-29T11:41:06;94228.91;;;21.63;23.80
21395;BME280;10858;42.714;23.180;2023-04-29T11:43:33;94228.56;;;22.12;24.48
21395;BME280;10858;42.714;23.180;2023-04-29T11:46:00;94241.41;;;22.30;23.73
21395;BME280;10858;42.714;23.180;2023-04-29T11:48:26;94230.19;;;22.13;25.81
21395;BME280;10858;42.714;23.180;2023-04-29T11:50:57;94231.25;;;22.06;27.88
21395;BME280;10858;42.714;23.180;2023-04-29T11:53:25;94227.69;;;21.98;24.81
21395;BME280;10858;42.714;23.180;2023-04-29T11:55:53;94232.78;;;21.28;28.53
21395;BME280;10858;42.714;23.180;2023-04-29T11:58:23;94220.75;;;21.37;27.60
21395;BME280;10858;42.714;23.180;2023-04-29T12:00:50;94217.25;;;21.63;26.40
21395;BME280;10858;42.714;23.180;2023-04-29T12:03:19;94219.38;;;22.07;25.16
21395;BME280;10858;42.714;23.180;2023-04-29T12:05:53;94209.22;;;21.95;25.01
21395;BME280;10858;42.714;23.180;2023-04-29T12:08:25;94209.63;;;22.06;27.27
21395;BME280;10858;42.714;23.180;2023-04-29T12:10:52;94215.84;;;22.26;24.14
21395;BME280;10858;42.714;23.180;2023-04-29T12:13:19;94214.78;;;22.27;23.67
21395;BME280;10858;42.714;23.180;2023-04-29T12:15:49;94205.66;;;22.15;24.10
21395;BME280;10858;42.714;23.180;2023-04-29T12:18:17;94206.09;;;21.72;24.99
21395;BME280;10858;42.714;23.180;2023-04-29T12:20:45;94207.47;;;21.36;25.47
21395;BME280;10858;42.714;23.180;2023-04-29T12:23:12;94207.06;;;21.39;26.64
21395;BME280;10858;42.714;23.180;2023-04-29T12:25:38;94197.78;;;21.87;27.35
21395;BME280;10858;42.714;23.180;2023-04-29T12:28:11;94193.03;;;22.02;24.76
21395;BME280;10858;42.714;23.180;2023-04-29T12:30:38;94195.94;;;21.87;24.80
21395;BME280;10858;42.714;23.180;2023-04-29T12:33:06;94186.56;;;21.96;26.09
21395;BME280;10858;42.714;23.180;2023-04-29T12:35:33;94190.13;;;21.84;27.76
21395;BME280;10858;42.714;23.180;2023-04-29T12:37:59;94191.09;;;21.63;24.60
21395;BME280;10858;42.714;23.180;2023-04-29T12:40:25;94195.56;;;21.10;29.61
21395;BME280;10858;42.714;23.180;2023-04-29T12:42:53;94189.84;;;20.79;25.35
21395;BME280;10858;42.714;23.180;2023-04-29T12:45:30;94189.19;;;21.18;28.71
21395;BME280;10858;42.714;23.180;2023-04-29T12:47:57;94190.13;;;20.97;24.94
21395;BME280;10858;42.714;23.180;2023-04-29T12:50:36;94191.63;;;21.06;24.82
21395;BME280;10858;42.714;23.180;2023-04-29T12:53:07;94191.25;;;21.16;25.50
21395;BME280;10858;42.714;23.180;2023-04-29T12:55:37;94188.59;;;21.49;25.17
21395;BME280;10858;42.714;23.180;2023-04-29T12:58:04;94182.59;;;21.79;27.01
21395;BME280;10858;42.714;23.180;2023-04-29T13:00:31;94179.88;;;21.73;27.11
21395;BME280;10858;42.714;23.180;2023-04-29T13:02:57;94184.66;;;22.30;25.06
21395;BME280;10858;42.714;23.180;2023-04-29T13:05:23;94182.81;;;22.11;28.47
21395;BME280;10858;42.714;23.180;2023-04-29T13:07:49;94175.56;;;21.91;27.53
21395;BME280;10858;42.714;23.180;2023-04-29T13:10:16;94179.28;;;22.04;26.85
21395;BME280;10858;42.714;23.180;2023-04-29T13:12:42;94174.72;;;21.91;27.65
21395;BME280;10858;42.714;23.180;2023-04-29T13:15:08;94177.44;;;21.97;28.06
21395;BME280;10858;42.714;23.180;2023-04-29T13:17:35;94172.25;;;21.89;29.10
21395;BME280;10858;42.714;23.180;2023-04-29T13:20:03;94162.50;;;21.82;28.17
21395;BME280;10858;42.714;23.180;2023-04-29T13:22:29;94166.63;;;21.97;28.47
21395;BME280;10858;42.714;23.180;2023-04-29T13:24:56;94171.88;;;22.76;26.69
21395;BME280;10858;42.714;23.180;2023-04-29T13:27:22;94172.72;;;22.76;27.65
21395;BME280;10858;42.714;23.180;2023-04-29T13:29:48;94170.03;;;22.63;27.57